Time;durP1;ratioP1;P1;durP2;ratioP2;P2;SDS_P1;SDS_P2;PMS_P1;PMS_P2;Temp;Humidity;BMP_temperature;BMP_pressure;BME280_temperature;BME280_humidity;BME280_pressure;Samples;Min_cycle;Max_cycle;Signal;HPM_P1;HPM_P2
2020/12/24 00:00:34;;;;;;;0.77;0.65;;;16.80;65.40;;;;;;5049903;28;20436;-82
2020/12/24 00:02:59;;;;;;;0.50;0.50;;;16.70;65.40;;;;;;5063920;28;20024;-76
2020/12/24 00:05:29;;;;;;;1.13;0.82;;;16.80;65.30;;;;;;5064600;28;20024;-77
2020/12/24 00:08:00;;;;;;;0.60;0.52;;;16.80;65.40;;;;;;5047185;28;20032;-77
2020/12/24 00:10:28;;;;;;;0.55;0.50;;;16.80;65.40;;;;;;5045860;28;20051;-76
2020/12/24 00:12:54;;;;;;;0.77;0.60;;;16.80;65.30;;;;;;5060968;28;20063;-78
2020/12/24 00:15:24;;;;;;;0.75;0.55;;;16.80;65.40;;;;;;5062380;28;20048;-79
2020/12/24 00:17:50;;;;;;;0.73;0.55;;;16.80;65.40;;;;;;5058433;28;20090;-77
2020/12/24 00:20:16;;;;;;;0.68;0.60;;;16.80;65.40;;;;;;5045115;28;20462;-77
2020/12/24 00:22:47;;;;;;;0.65;0.45;;;16.70;65.40;;;;;;5045547;28;21189;-77
2020/12/24 00:25:13;;;;;;;0.60;0.50;;;16.70;65.40;;;;;;5045271;28;20520;-77
2020/12/24 00:27:38;;;;;;;0.65;0.50;;;16.80;65.40;;;;;;5060371;28;20044;-76
2020/12/24 00:30:18;;;;;;;1.08;0.80;;;16.70;65.40;;;;;;5066925;28;20025;-77
2020/12/24 00:32:44;;;;;;;0.80;0.63;;;16.80;65.40;;;;;;5041095;28;20108;-78
2020/12/24 00:35:24;;;;;;;1.42;0.60;;;16.70;65.40;;;;;;5048644;28;20864;-77
2020/12/24 00:37:52;;;;;;;0.40;0.40;;;16.80;65.40;;;;;;5041834;28;20533;-82
2020/12/24 00:40:30;;;;;;;0.90;0.60;;;16.70;65.40;;;;;;5058432;28;20043;-77
2020/12/24 00:42:59;;;;;;;1.25;0.77;;;16.80;65.50;;;;;;5044054;28;20041;-80
2020/12/24 00:45:29;;;;;;;0.63;0.50;;;16.70;65.40;;;;;;5062125;28;20036;-79
2020/12/24 00:47:55;;;;;;;1.58;0.63;;;16.70;65.50;;;;;;5061129;28;20036;-77
2020/12/24 00:50:20;;;;;;;1.05;0.60;;;16.80;65.50;;;;;;5061535;28;20017;-81
2020/12/24 00:52:51;;;;;;;0.90;0.70;;;16.70;65.50;;;;;;5061837;28;20016;-79
2020/12/24 00:55:21;;;;;;;0.47;0.40;;;16.80;65.50;;;;;;5063767;28;20039;-77
2020/12/24 00:57:46;;;;;;;0.77;0.60;;;16.70;65.50;;;;;;5046093;28;20119;-79
2020/12/24 01:00:12;;;;;;;1.38;0.60;;;16.70;65.50;;;;;;5046449;28;20163;-82
2020/12/24 01:02:42;;;;;;;0.40;0.40;;;16.70;65.50;;;;;;5044885;28;20043;-77
2020/12/24 01:05:08;;;;;;;0.63;0.50;;;16.80;65.50;;;;;;5059365;28;20036;-77
2020/12/24 01:07:38;;;;;;;0.45;0.45;;;16.70;65.50;;;;;;5048725;28;20032;-75
2020/12/24 01:10:08;;;;;;;0.80;0.60;;;16.80;65.50;;;;;;5061115;28;20029;-76
2020/12/24 01:12:34;;;;;;;0.77;0.73;;;16.80;65.50;;;;;;5062564;28;20458;-75
2020/12/24 01:15:01;;;;;;;1.20;0.73;;;16.70;65.50;;;;;;5034163;28;20663;-78
2020/12/24 01:17:32;;;;;;;1.17;0.73;;;16.80;65.50;;;;;;5045694;28;20076;-80
2020/12/24 01:19:57;;;;;;;0.65;0.50;;;16.70;65.50;;;;;;5042758;28;20029;-78
2020/12/24 01:22:23;;;;;;;1.42;0.90;;;16.70;65.60;;;;;;5042199;28;20394;-76
2020/12/24 01:25:00;;;;;;;0.60;0.60;;;16.70;65.50;;;;;;5024477;28;20478;-75
2020/12/24 01:27:26;;;;;;;0.65;0.60;;;16.70;65.50;;;;;;5026724;28;21350;-77
2020/12/24 01:29:52;;;;;;;0.77;0.60;;;16.70;65.50;;;;;;5045649;28;20091;-75
2020/12/24 01:32:22;;;;;;;0.95;0.50;;;16.70;65.50;;;;;;5038105;28;20037;-75
2020/12/24 01:34:48;;;;;;;0.73;0.38;;;16.70;65.60;;;;;;5026290;28;20470;-75
2020/12/24 01:37:18;;;;;;;0.60;0.60;;;16.70;65.60;;;;;;5036166;28;20085;-77
2020/12/24 01:39:49;;;;;;;0.90;0.60;;;16.70;65.60;;;;;;5027999;28;20021;-75
2020/12/24 01:42:17;;;;;;;1.35;0.80;;;16.70;65.60;;;;;;5039615;28;20025;-82
2020/12/24 01:44:47;;;;;;;0.82;0.70;;;16.80;65.60;;;;;;5040206;28;20037;-78
2020/12/24 01:47:14;;;;;;;1.00;0.60;;;16.70;65.60;;;;;;5038997;28;20040;-82
2020/12/24 01:49:40;;;;;;;0.70;0.60;;;16.70;65.60;;;;;;5039316;28;20031;-79
2020/12/24 01:52:21;;;;;;;1.08;0.80;;;16.70;65.60;;;;;;5042098;28;20412;-79
2020/12/24 01:54:52;;;;;;;0.57;0.40;;;16.70;65.60;;;;;;5031488;28;20029;-80
2020/12/24 01:57:22;;;;;;;0.77;0.60;;;16.70;65.60;;;;;;5034144;28;20033;-80
2020/12/24 01:59:52;;;;;;;1.00;0.60;;;16.70;65.60;;;;;;5042807;28;20051;-77
2020/12/24 02:02:26;;;;;;;0.65;0.60;;;16.70;65.60;;;;;;5045697;28;20036;-76
2020/12/24 02:04:56;;;;;;;1.55;1.25;;;16.70;65.60;;;;;;5017371;28;20041;-76
2020/12/24 02:07:22;;;;;;;1.70;1.00;;;16.70;65.60;;;;;;5042294;28;20143;-77
2020/12/24 02:09:49;;;;;;;0.45;0.38;;;16.70;65.60;;;;;;5026440;28;20448;-83
2020/12/24 02:12:18;;;;;;;0.93;0.60;;;16.70;65.60;;;;;;5026765;28;20040;-77
2020/12/24 02:14:45;;;;;;;0.60;0.57;;;16.70;65.60;;;;;;5036467;28;20056;-76
2020/12/24 02:17:15;;;;;;;1.15;0.82;;;16.70;65.60;;;;;;5045491;28;20025;-78
2020/12/24 02:19:40;;;;;;;1.48;0.60;;;16.70;65.60;;;;;;5063701;28;20033;-76
2020/12/24 02:22:12;;;;;;;0.60;0.50;;;16.70;65.60;;;;;;5064513;28;20028;-77
2020/12/24 02:24:44;;;;;;;0.80;0.60;;;16.70;65.60;;;;;;5043336;28;20090;-77
2020/12/24 02:27:15;;;;;;;0.50;0.43;;;16.70;65.60;;;;;;5061503;28;20024;-83
2020/12/24 02:29:40;;;;;;;1.23;0.77;;;16.70;65.60;;;;;;5064777;28;20102;-80
2020/12/24 02:32:11;;;;;;;0.70;0.50;;;16.70;65.60;;;;;;5058277;28;20056;-77
2020/12/24 02:34:42;;;;;;;0.47;0.47;;;16.70;65.60;;;;;;5064357;28;20024;-77
2020/12/24 02:37:12;;;;;;;0.63;0.50;;;16.70;65.60;;;;;;5050396;28;20032;-77
2020/12/24 02:39:42;;;;;;;1.60;0.88;;;16.70;65.70;;;;;;5059474;28;20078;-77
2020/12/24 02:42:12;;;;;;;0.70;0.45;;;16.70;65.70;;;;;;5065884;28;20112;-78
2020/12/24 02:44:43;;;;;;;1.92;1.00;;;16.70;65.70;;;;;;5062126;28;20090;-79
2020/12/24 02:47:09;;;;;;;0.90;0.70;;;16.70;65.60;;;;;;5054899;28;20151;-77
2020/12/24 02:49:42;;;;;;;0.70;0.50;;;16.70;65.70;;;;;;5067022;28;20107;-77
2020/12/24 02:52:08;;;;;;;0.50;0.50;;;16.70;65.70;;;;;;5058607;28;20028;-77
2020/12/24 02:54:34;;;;;;;1.48;0.63;;;16.70;65.70;;;;;;5068665;28;20066;-77
2020/12/24 02:57:03;;;;;;;1.52;0.80;;;16.70;65.70;;;;;;5057121;28;20072;-77
2020/12/24 02:59:31;;;;;;;0.73;0.70;;;16.70;65.70;;;;;;5043920;28;20031;-77
2020/12/24 03:02:01;;;;;;;;;;;16.70;65.70;;;;;;5042634;28;20079;-78
2020/12/24 03:04:27;;;;;;;0.60;0.40;;;16.70;65.60;;;;;;5063322;28;19966;-77
2020/12/24 03:06:57;;;;;;;1.85;0.70;;;16.70;65.70;;;;;;5040796;28;20064;-77
2020/12/24 03:09:23;;;;;;;0.50;0.40;;;16.70;65.70;;;;;;5061825;28;20061;-77
2020/12/24 03:11:54;;;;;;;0.60;0.60;;;16.70;65.70;;;;;;5055429;28;20029;-78
2020/12/24 03:14:20;;;;;;;1.25;0.50;;;16.70;65.70;;;;;;5056723;28;20093;-80
2020/12/24 03:16:47;;;;;;;1.17;0.85;;;16.70;65.70;;;;;;5036546;28;20040;-80
2020/12/24 03:19:13;;;;;;;0.50;0.50;;;16.70;65.70;;;;;;5065549;28;20029;-78
2020/12/24 03:21:39;;;;;;;0.90;0.70;;;16.70;65.70;;;;;;5030733;28;20044;-76
2020/12/24 03:24:08;;;;;;;0.63;0.50;;;16.70;65.70;;;;;;5046487;28;20039;-77
2020/12/24 03:26:34;;;;;;;1.23;1.05;;;16.70;65.70;;;;;;5060963;28;20029;-76
2020/12/24 03:29:04;;;;;;;0.50;0.50;;;16.70;65.70;;;;;;5064962;28;20105;-77
2020/12/24 03:31:33;;;;;;;0.93;0.80;;;16.70;65.70;;;;;;5044801;28;20051;-76
2020/12/24 03:33:59;;;;;;;1.15;0.85;;;16.70;65.70;;;;;;5061667;28;20040;-77
2020/12/24 03:36:24;;;;;;;1.05;0.75;;;16.70;65.70;;;;;;5068320;28;20040;-78
2020/12/24 03:38:57;;;;;;;0.70;0.60;;;16.70;65.70;;;;;;5041131;28;20036;-78
2020/12/24 03:41:23;;;;;;;0.85;0.50;;;16.80;65.70;;;;;;5050874;28;20083;-77
2020/12/24 03:43:53;;;;;;;1.10;0.95;;;16.70;65.70;;;;;;5053190;28;20478;-78
2020/12/24 03:46:18;;;;;;;1.00;0.70;;;16.70;65.80;;;;;;5062684;28;20052;-77
2020/12/24 03:48:48;;;;;;;1.10;0.70;;;16.70;65.80;;;;;;5065248;28;20488;-77
2020/12/24 03:51:14;;;;;;;0.98;0.70;;;16.70;65.70;;;;;;5048566;28;20489;-79
2020/12/24 03:53:44;;;;;;;1.48;0.60;;;16.70;65.70;;;;;;5051463;28;20029;-77
2020/12/24 03:56:12;;;;;;;1.00;0.60;;;16.70;65.70;;;;;;5067086;28;20025;-77
2020/12/24 03:58:42;;;;;;;0.77;0.70;;;16.70;65.70;;;;;;5055856;28;20489;-76
2020/12/24 04:01:09;;;;;;;0.90;0.68;;;16.70;65.70;;;;;;5061990;28;20036;-77
2020/12/24 04:03:40;;;;;;;0.60;0.50;;;16.70;65.80;;;;;;5053324;28;20115;-77
2020/12/24 04:06:08;;;;;;;1.15;0.70;;;16.70;65.80;;;;;;5067591;28;20056;-77
2020/12/24 04:08:48;;;;;;;0.68;0.40;;;16.70;65.80;;;;;;5062502;28;20032;-77
2020/12/24 04:11:18;;;;;;;1.00;0.60;;;16.70;65.80;;;;;;5053806;28;20375;-79
2020/12/24 04:13:52;;;;;;;1.70;0.82;;;16.70;65.70;;;;;;5051131;28;20474;-78
2020/12/24 04:16:26;;;;;;;0.85;0.60;;;16.70;65.80;;;;;;5052547;28;20127;-77
2020/12/24 04:18:57;;;;;;;1.20;1.00;;;16.70;65.80;;;;;;5050003;28;20036;-76
2020/12/24 04:21:23;;;;;;;0.98;0.57;;;16.70;65.80;;;;;;5048188;28;20389;-77
2020/12/24 04:23:49;;;;;;;1.00;0.75;;;16.70;65.80;;;;;;5068999;28;20025;-80
2020/12/24 04:26:22;;;;;;;0.65;0.50;;;16.70;65.80;;;;;;5043607;28;20044;-76
2020/12/24 04:28:54;;;;;;;0.50;0.50;;;16.70;65.80;;;;;;5062000;28;20056;-77
2020/12/24 04:31:24;;;;;;;0.77;0.60;;;16.70;65.80;;;;;;5044299;28;20515;-77
2020/12/24 04:33:54;;;;;;;0.77;0.60;;;16.70;65.80;;;;;;5040761;28;20024;-80
2020/12/24 04:36:25;;;;;;;1.25;0.60;;;16.70;65.80;;;;;;5043996;28;20116;-77
2020/12/24 04:38:55;;;;;;;1.00;0.90;;;16.70;65.80;;;;;;5065379;28;20024;-79
2020/12/24 04:41:26;;;;;;;0.80;0.60;;;16.70;65.80;;;;;;5065429;28;20036;-77
2020/12/24 04:43:52;;;;;;;0.60;0.55;;;16.70;65.80;;;;;;5049716;28;20050;-76
2020/12/24 04:46:20;;;;;;;1.50;1.00;;;16.70;65.80;;;;;;5060452;28;20037;-76
2020/12/24 04:49:00;;;;;;;1.00;0.90;;;16.70;65.90;;;;;;5043739;28;20033;-77
2020/12/24 04:51:26;;;;;;;0.93;0.70;;;16.70;65.80;;;;;;5043217;28;20037;-77
2020/12/24 04:53:57;;;;;;;2.33;0.90;;;16.70;65.80;;;;;;5047256;28;20021;-77
2020/12/24 04:56:31;;;;;;;0.77;0.65;;;16.70;65.80;;;;;;5072788;28;20062;-79
2020/12/24 04:59:01;;;;;;;0.65;0.65;;;16.70;65.80;;;;;;5068933;28;20409;-76
2020/12/24 05:01:31;;;;;;;0.60;0.50;;;16.70;65.90;;;;;;5070902;28;20025;-77
2020/12/24 05:03:57;;;;;;;0.60;0.52;;;16.70;65.90;;;;;;5053538;28;20024;-78
2020/12/24 05:06:22;;;;;;;0.70;0.60;;;16.70;65.90;;;;;;5072828;28;20090;-77
2020/12/24 05:08:54;;;;;;;1.55;0.70;;;16.70;65.90;;;;;;5054816;28;20111;-77
2020/12/24 05:11:27;;;;;;;0.63;0.63;;;16.70;65.90;;;;;;5051341;28;20024;-77
2020/12/24 05:13:54;;;;;;;0.70;0.52;;;16.70;65.90;;;;;;5056842;28;20049;-76
2020/12/24 05:16:42;;;;;;;0.93;0.68;;;16.70;65.90;;;;;;5072696;28;20119;-77
2020/12/24 05:19:11;;;;;;;0.82;0.50;;;16.70;65.90;;;;;;5073687;28;20033;-77
2020/12/24 05:21:45;;;;;;;0.85;0.50;;;16.70;65.90;;;;;;5074533;28;20021;-77
2020/12/24 05:24:33;;;;;;;0.52;0.52;;;16.70;65.90;;;;;;5073628;28;20488;-77
2020/12/24 05:27:21;;;;;;;0.50;0.45;;;16.60;65.90;;;;;;5063522;28;20493;-76
2020/12/24 05:30:12;;;;;;;1.13;0.50;;;16.60;65.90;;;;;;5065332;28;20469;-77
2020/12/24 05:32:52;;;;;;;0.75;0.73;;;16.70;65.90;;;;;;5068549;28;20036;-76
2020/12/24 05:35:25;;;;;;;0.73;0.60;;;16.70;65.90;;;;;;5055517;28;20041;-77
2020/12/24 05:37:52;;;;;;;0.98;0.60;;;16.70;65.90;;;;;;5066065;28;20367;-77
2020/12/24 05:40:24;;;;;;;1.40;0.60;;;16.70;65.90;;;;;;5068078;28;20474;-77
2020/12/24 05:42:54;;;;;;;0.70;0.50;;;16.70;66.00;;;;;;5053732;28;20037;-78
2020/12/24 05:45:23;;;;;;;0.95;0.70;;;16.70;65.90;;;;;;5048576;28;20033;-76
2020/12/24 05:48:13;;;;;;;;;;;16.70;66.00;;;;;;5060683;28;20389;-77
2020/12/24 05:50:43;;;;;;;1.30;0.60;;;16.70;66.00;;;;;;5055574;28;19904;-77
2020/12/24 05:53:15;;;;;;;0.63;0.60;;;16.60;66.00;;;;;;5071153;28;20107;-76
2020/12/24 05:55:52;;;;;;;2.22;0.70;;;16.70;66.00;;;;;;5072605;28;20099;-76
2020/12/24 05:58:18;;;;;;;0.73;0.57;;;16.70;66.00;;;;;;5055087;28;20098;-77
2020/12/24 06:00:46;;;;;;;1.33;0.50;;;16.70;66.00;;;;;;5072257;28;20465;-77
2020/12/24 06:03:17;;;;;;;;;;;16.70;66.00;;;;;;5053622;28;20031;-76
2020/12/24 06:05:49;;;;;;;0.57;0.55;;;16.60;66.00;;;;;;5073190;28;19917;-77
2020/12/24 06:08:31;;;;;;;1.17;0.82;;;16.70;66.00;;;;;;5054841;28;20028;-76
2020/12/24 06:11:36;;;;;;;0.70;0.57;;;16.70;66.00;;;;;;5048723;28;20103;-76
2020/12/24 06:14:19;;;;;;;0.55;0.55;;;16.70;66.00;;;;;;5072428;28;20040;-77
2020/12/24 06:16:49;;;;;;;0.57;0.47;;;16.60;66.00;;;;;;5055302;28;20024;-77
2020/12/24 06:19:20;;;;;;;0.73;0.60;;;16.60;66.10;;;;;;5052729;28;20025;-77
2020/12/24 06:21:51;;;;;;;0.95;0.63;;;16.70;66.10;;;;;;5052109;28;20125;-77
2020/12/24 06:24:28;;;;;;;0.98;0.68;;;16.60;66.10;;;;;;5055015;28;20028;-77
2020/12/24 06:27:22;;;;;;;0.93;0.50;;;16.70;66.10;;;;;;5067326;28;20021;-81
2020/12/24 06:30:19;;;;;;;1.13;0.70;;;16.70;66.10;;;;;;5073971;28;20108;-77
2020/12/24 06:32:50;;;;;;;1.27;0.70;;;16.60;66.10;;;;;;5062876;28;20032;-77
2020/12/24 06:35:40;;;;;;;0.88;0.70;;;16.60;66.10;;;;;;5072207;28;20138;-76
2020/12/24 06:38:11;;;;;;;1.33;0.80;;;16.60;66.10;;;;;;5073526;28;20031;-77
2020/12/24 06:40:46;;;;;;;1.70;0.70;;;16.60;66.10;;;;;;5072594;28;20029;-76
2020/12/24 06:43:16;;;;;;;0.90;0.63;;;16.60;66.10;;;;;;5046420;28;20029;-77
2020/12/24 06:45:43;;;;;;;0.77;0.75;;;16.60;66.10;;;;;;5051233;28;20037;-82
2020/12/24 06:48:12;;;;;;;0.50;0.40;;;16.60;66.20;;;;;;5045708;28;21884;-81
2020/12/24 06:50:42;;;;;;;1.40;0.90;;;16.60;66.20;;;;;;5044916;28;20107;-77
2020/12/24 06:53:24;;;;;;;0.77;0.73;;;16.60;66.20;;;;;;5069746;28;20119;-76
2020/12/24 06:56:31;;;;;;;1.02;0.60;;;16.60;66.20;;;;;;5046598;28;20029;-76
2020/12/24 06:59:03;;;;;;;0.68;0.68;;;16.60;66.20;;;;;;5063486;28;20043;-77
2020/12/24 07:01:35;;;;;;;0.82;0.52;;;16.60;66.20;;;;;;5052717;28;20642;-76
2020/12/24 07:04:08;;;;;;;0.80;0.55;;;16.60;66.20;;;;;;5069561;28;20020;-76
2020/12/24 07:06:44;;;;;;;0.90;0.70;;;16.60;66.20;;;;;;5066182;28;20033;-76
2020/12/24 07:09:38;;;;;;;1.83;0.80;;;16.60;66.20;;;;;;5070884;28;20097;-78
2020/12/24 07:12:04;;;;;;;0.60;0.60;;;16.60;66.20;;;;;;5046019;28;20119;-78
2020/12/24 07:14:31;;;;;;;0.80;0.60;;;16.60;66.20;;;;;;5063981;28;20152;-77
2020/12/24 07:17:08;;;;;;;0.68;0.60;;;16.60;66.20;;;;;;5067083;28;20107;-76
2020/12/24 07:19:39;;;;;;;0.93;0.60;;;16.60;66.20;;;;;;5066544;28;20082;-76
2020/12/24 07:22:28;;;;;;;0.93;0.63;;;16.60;66.20;;;;;;5051794;28;20031;-76
2020/12/24 07:25:02;;;;;;;0.85;0.60;;;16.60;66.20;;;;;;5051430;28;20490;-76
2020/12/24 07:27:28;;;;;;;0.95;0.70;;;16.60;66.20;;;;;;5049144;28;20036;-77
2020/12/24 07:29:54;;;;;;;0.73;0.52;;;16.60;66.20;;;;;;5054061;28;20040;-76
2020/12/24 07:32:27;;;;;;;0.77;0.60;;;16.60;66.30;;;;;;5070919;28;20048;-76
2020/12/24 07:34:53;;;;;;;0.80;0.60;;;16.60;66.30;;;;;;5054278;28;20449;-76
2020/12/24 07:37:21;;;;;;;1.15;0.60;;;16.60;66.30;;;;;;5070913;28;20024;-78
2020/12/24 07:39:53;;;;;;;0.55;0.50;;;16.60;66.20;;;;;;5047850;28;20033;-76
2020/12/24 07:42:23;;;;;;;0.65;0.52;;;16.60;66.30;;;;;;5063754;28;20033;-77
2020/12/24 07:44:52;;;;;;;0.65;0.60;;;16.60;66.30;;;;;;5052736;28;20086;-77
2020/12/24 07:47:18;;;;;;;0.70;0.60;;;16.60;66.30;;;;;;5051872;28;20029;-76
2020/12/24 07:49:53;;;;;;;1.00;0.88;;;16.60;66.30;;;;;;5069546;28;20367;-78
2020/12/24 07:52:19;;;;;;;1.00;0.60;;;16.60;66.30;;;;;;5047439;28;20059;-80
2020/12/24 07:54:49;;;;;;;0.95;0.52;;;16.60;66.30;;;;;;5071287;28;20477;-79
2020/12/24 07:57:22;;;;;;;0.63;0.43;;;16.60;66.30;;;;;;5054777;28;20091;-77
2020/12/24 07:59:48;;;;;;;1.02;0.70;;;16.60;66.30;;;;;;5064282;28;20470;-77
2020/12/24 08:02:19;;;;;;;0.95;0.75;;;16.60;66.30;;;;;;5047087;28;20036;-76
2020/12/24 08:05:00;;;;;;;0.50;0.45;;;16.60;66.30;;;;;;5047805;28;20033;-77
2020/12/24 08:07:26;;;;;;;0.80;0.80;;;16.60;66.30;;;;;;5062093;28;20114;-77
2020/12/24 08:09:54;;;;;;;1.27;0.82;;;16.60;66.30;;;;;;5048438;28;20082;-76
2020/12/24 08:12:26;;;;;;;0.90;0.80;;;16.60;66.30;;;;;;5066532;28;20560;-77
2020/12/24 08:14:51;;;;;;;1.10;0.75;;;16.60;66.30;;;;;;5061704;28;20068;-80
2020/12/24 08:17:45;;;;;;;0.85;0.77;;;16.60;66.30;;;;;;5066294;28;20056;-79
2020/12/24 08:20:14;;;;;;;1.42;0.70;;;16.60;66.30;;;;;;5052826;28;20364;-82
2020/12/24 08:23:17;;;;;;;1.15;0.60;;;16.60;66.30;;;;;;5060533;28;20608;-76
2020/12/24 08:25:52;;;;;;;0.60;0.57;;;16.60;66.30;;;;;;5029398;28;20047;-77
2020/12/24 08:28:18;;;;;;;0.50;0.45;;;16.60;66.30;;;;;;5063520;28;20025;-77
2020/12/24 08:30:47;;;;;;;1.08;0.70;;;16.60;66.30;;;;;;5065194;28;20039;-77
2020/12/24 08:33:26;;;;;;;0.60;0.60;;;16.60;66.30;;;;;;5068579;28;20029;-77
2020/12/24 08:35:54;;;;;;;0.47;0.40;;;16.60;66.30;;;;;;5048578;28;20032;-77
2020/12/24 08:38:34;;;;;;;0.77;0.50;;;16.60;66.30;;;;;;5071835;28;20454;-77
2020/12/24 08:41:04;;;;;;;1.02;0.82;;;16.60;66.30;;;;;;5074190;28;20032;-77
2020/12/24 08:43:32;;;;;;;0.75;0.50;;;16.70;66.20;;;;;;5056108;28;20441;-77
2020/12/24 08:46:03;;;;;;;1.70;0.90;;;16.60;66.20;;;;;;5054181;28;20120;-77
2020/12/24 08:48:34;;;;;;;1.33;0.70;;;16.60;66.10;;;;;;5064237;28;20083;-77
2020/12/24 08:51:20;;;;;;;1.02;0.70;;;16.70;66.10;;;;;;5045957;28;20024;-77
2020/12/24 08:53:49;;;;;;;1.00;0.73;;;16.70;66.10;;;;;;5071994;28;20693;-77
2020/12/24 08:56:30;;;;;;;0.77;0.47;;;16.70;66.10;;;;;;5070523;28;20083;-77
2020/12/24 08:58:56;;;;;;;0.82;0.60;;;16.70;66.10;;;;;;5063619;28;20027;-78
2020/12/24 09:01:34;;;;;;;1.65;0.70;;;16.70;66.00;;;;;;5058957;28;20111;-77
2020/12/24 09:04:10;;;;;;;0.75;0.75;;;16.80;66.00;;;;;;5066817;28;20466;-77
2020/12/24 09:06:36;;;;;;;0.50;0.50;;;16.70;66.00;;;;;;5067858;28;20466;-77
2020/12/24 09:09:02;;;;;;;1.08;0.82;;;16.70;66.00;;;;;;5044606;28;20030;-80
2020/12/24 09:11:29;;;;;;;0.77;0.60;;;16.70;66.00;;;;;;5064990;28;20432;-78
2020/12/24 09:14:22;;;;;;;1.20;0.88;;;16.70;66.00;;;;;;5031895;28;20111;-77
2020/12/24 09:17:04;;;;;;;1.58;0.70;;;16.70;66.10;;;;;;5048467;28;20115;-77
2020/12/24 09:19:32;;;;;;;0.50;0.50;;;16.70;66.00;;;;;;5046888;28;20040;-77
2020/12/24 09:21:58;;;;;;;;;;;16.60;66.10;;;;;;5043107;28;20025;-78
2020/12/24 09:24:27;;;;;;;1.17;0.60;;;16.60;66.10;;;;;;5043510;28;20297;-77
2020/12/24 09:26:54;;;;;;;1.20;0.70;;;16.60;66.20;;;;;;5031250;28;20031;-77
2020/12/24 09:29:25;;;;;;;1.25;0.63;;;16.70;66.20;;;;;;5044458;28;20059;-77
2020/12/24 09:31:58;;;;;;;0.80;0.60;;;16.70;66.20;;;;;;5028990;28;20029;-77
2020/12/24 09:34:36;;;;;;;0.82;0.70;;;16.60;66.20;;;;;;5022864;28;20175;-77
2020/12/24 09:37:02;;;;;;;1.52;0.40;;;16.60;66.30;;;;;;5043411;28;20035;-80
2020/12/24 09:39:30;;;;;;;1.27;0.60;;;16.60;66.20;;;;;;5029154;28;20033;-82
2020/12/24 09:41:56;;;;;;;0.95;0.60;;;16.60;66.20;;;;;;5043713;28;20389;-80
2020/12/24 09:44:29;;;;;;;1.67;0.90;;;16.60;66.30;;;;;;5030681;28;20040;-76
2020/12/24 09:47:19;;;;;;;0.50;0.50;;;16.60;66.30;;;;;;5047092;28;20031;-76
2020/12/24 09:49:45;;;;;;;1.10;0.77;;;16.60;66.30;;;;;;5044283;28;20394;-76
2020/12/24 09:52:24;;;;;;;0.80;0.45;;;16.60;66.30;;;;;;5033822;28;20032;-76
2020/12/24 09:55:02;;;;;;;0.90;0.70;;;16.60;66.30;;;;;;5049440;28;20040;-77
2020/12/24 09:57:33;;;;;;;1.15;0.70;;;16.60;66.30;;;;;;5030737;28;20028;-79
2020/12/24 09:59:59;;;;;;;0.75;0.57;;;16.70;66.20;;;;;;5029277;28;20034;-78
2020/12/24 10:02:29;;;;;;;0.70;0.60;;;16.70;66.20;;;;;;5022605;28;20120;-78
2020/12/24 10:05:00;;;;;;;1.42;0.80;;;16.70;66.10;;;;;;5046891;28;20037;-79
2020/12/24 10:07:25;;;;;;;0.68;0.68;;;16.70;66.10;;;;;;5045959;28;20062;-77
2020/12/24 10:09:55;;;;;;;0.75;0.60;;;16.70;66.10;;;;;;5040444;28;20044;-79
2020/12/24 10:12:37;;;;;;;0.95;0.70;;;16.70;66.10;;;;;;5045377;28;20025;-79
2020/12/24 10:15:03;;;;;;;0.95;0.52;;;16.70;66.10;;;;;;5059007;28;20062;-77
2020/12/24 10:17:40;;;;;;;0.57;0.52;;;16.70;66.10;;;;;;5059296;28;20082;-75
2020/12/24 10:20:06;;;;;;;2.75;0.75;;;16.70;66.10;;;;;;5047706;28;20020;-75
2020/12/24 10:22:32;;;;;;;0.43;0.43;;;16.70;66.00;;;;;;5048804;28;20207;-75
2020/12/24 10:25:00;;;;;;;0.90;0.60;;;16.70;66.00;;;;;;5051169;28;20091;-79
2020/12/24 10:27:31;;;;;;;1.33;0.40;;;16.70;66.00;;;;;;5043999;28;20115;-81
2020/12/24 10:30:08;;;;;;;1.02;0.60;;;16.70;66.00;;;;;;5047910;28;20029;-76
2020/12/24 10:32:40;;;;;;;0.73;0.67;;;16.70;66.00;;;;;;5057804;28;20065;-77
2020/12/24 10:35:06;;;;;;;0.65;0.60;;;16.70;66.00;;;;;;5066111;28;20275;-76
2020/12/24 10:37:44;;;;;;;0.63;0.50;;;16.70;66.10;;;;;;5063561;28;20017;-77
2020/12/24 10:40:22;;;;;;;1.48;0.80;;;16.70;66.00;;;;;;5048135;28;20035;-80
2020/12/24 10:42:48;;;;;;;1.08;0.57;;;16.70;66.00;;;;;;5043690;28;20029;-76
2020/12/24 10:45:27;;;;;;;1.25;0.57;;;16.80;65.90;;;;;;5066888;28;20099;-76
2020/12/24 10:47:52;;;;;;;;;;;16.80;65.80;;;;;;5064071;28;20028;-78
2020/12/24 10:50:19;;;;;;;2.97;0.68;;;16.80;65.80;;;;;;5061620;28;20357;-77
2020/12/24 10:58:10;;;;;;;0.57;0.57;;;16.80;65.90;;;;;;525946;26;20305;-74
2020/12/24 11:00:49;;;;;;;1.05;0.63;;;16.80;66.00;;;;;;5064546;28;20526;-75
2020/12/24 11:03:15;;;;;;;0.82;0.75;;;16.70;66.00;;;;;;5063846;28;20029;-80
2020/12/24 11:05:46;;;;;;;1.60;0.60;;;16.70;66.00;;;;;;5067811;28;20432;-77
2020/12/24 11:08:37;;;;;;;0.70;0.50;;;16.70;66.00;;;;;;5072239;28;20024;-75
2020/12/24 11:11:03;;;;;;;0.88;0.43;;;16.70;66.00;;;;;;5070528;28;20037;-75
2020/12/24 11:13:43;;;;;;;1.10;0.57;;;16.70;66.10;;;;;;5066095;28;20055;-75
2020/12/24 11:16:09;;;;;;;0.77;0.55;;;16.70;66.00;;;;;;5054798;28;20025;-75
2020/12/24 11:18:43;;;;;;;1.17;0.70;;;16.70;66.00;;;;;;5083591;28;20025;-75
2020/12/24 11:21:09;;;;;;;1.17;0.60;;;16.70;66.00;;;;;;5073650;28;20025;-74
2020/12/24 11:23:40;;;;;;;0.50;0.50;;;16.70;65.90;;;;;;5074392;28;20039;-75
2020/12/24 11:26:26;;;;;;;1.02;0.82;;;16.80;65.90;;;;;;5056019;28;20025;-79
2020/12/24 11:29:08;;;;;;;0.85;0.50;;;16.80;65.90;;;;;;5075593;28;20045;-77
2020/12/24 11:31:39;;;;;;;0.85;0.70;;;16.80;65.90;;;;;;5067746;28;20391;-77
2020/12/24 11:34:06;;;;;;;1.13;0.73;;;16.80;65.80;;;;;;5072379;28;20116;-77
2020/12/24 11:36:33;;;;;;;1.02;0.82;;;16.80;65.80;;;;;;5054597;28;20307;-78
2020/12/24 11:39:02;;;;;;;0.65;0.65;;;16.80;65.70;;;;;;5053605;28;20020;-76
2020/12/24 11:41:33;;;;;;;0.70;0.60;;;16.80;65.60;;;;;;5054011;28;20028;-78
2020/12/24 11:44:04;;;;;;;1.17;0.80;;;16.80;65.60;;;;;;5073054;28;20032;-77
2020/12/24 11:46:39;;;;;;;1.30;0.60;;;16.80;65.60;;;;;;5048653;28;20028;-77
2020/12/24 11:49:10;;;;;;;0.90;0.70;;;16.80;65.60;;;;;;5069361;28;20517;-77
2020/12/24 11:51:40;;;;;;;0.88;0.60;;;16.80;65.60;;;;;;5071032;28;20024;-77
2020/12/24 11:54:09;;;;;;;0.70;0.50;;;16.80;65.70;;;;;;5046485;28;20355;-77
2020/12/24 11:56:34;;;;;;;0.50;0.45;;;16.80;65.70;;;;;;5072079;28;20121;-77
2020/12/24 11:59:00;;;;;;;1.85;0.65;;;16.80;65.70;;;;;;5049402;28;20068;-77
2020/12/24 12:01:26;;;;;;;0.70;0.57;;;16.80;65.70;;;;;;5033710;28;20040;-77
2020/12/24 12:03:53;;;;;;;0.82;0.60;;;16.80;65.70;;;;;;5036872;28;20043;-77
2020/12/24 12:06:19;;;;;;;0.88;0.57;;;16.80;65.80;;;;;;5030682;28;20033;-77
2020/12/24 12:08:50;;;;;;;0.80;0.57;;;16.80;65.80;;;;;;5049111;28;20040;-77
2020/12/24 12:11:16;;;;;;;0.60;0.50;;;16.80;65.80;;;;;;5037037;28;20116;-77
2020/12/24 12:13:47;;;;;;;0.77;0.55;;;16.80;65.70;;;;;;5053183;28;20029;-77
2020/12/24 12:16:17;;;;;;;0.80;0.70;;;16.80;65.70;;;;;;5035357;28;20035;-77
2020/12/24 12:18:43;;;;;;;0.80;0.50;;;16.80;65.60;;;;;;5049849;28;20025;-77
2020/12/24 12:21:16;;;;;;;0.45;0.45;;;16.80;65.60;;;;;;5031088;28;20112;-77
2020/12/24 12:23:41;;;;;;;0.82;0.50;;;16.80;65.50;;;;;;5048779;28;20558;-77
2020/12/24 12:26:07;;;;;;;0.40;0.40;;;16.90;65.40;;;;;;5036858;28;20120;-77
2020/12/24 12:28:51;;;;;;;0.55;0.55;;;16.90;65.40;;;;;;5033275;28;20041;-77
2020/12/24 12:31:22;;;;;;;0.73;0.60;;;16.90;65.40;;;;;;5028803;28;20082;-77
2020/12/24 12:34:02;;;;;;;2.05;0.70;;;16.90;65.30;;;;;;5035222;28;20037;-77
2020/12/24 12:36:32;;;;;;;0.82;0.63;;;16.80;65.40;;;;;;5032322;28;20028;-77
2020/12/24 12:39:02;;;;;;;0.60;0.60;;;16.90;65.40;;;;;;5034812;28;20060;-77
2020/12/24 12:41:32;;;;;;;1.00;0.50;;;16.90;65.40;;;;;;5036576;28;20415;-78
2020/12/24 12:44:03;;;;;;;0.55;0.55;;;16.90;65.50;;;;;;5049202;28;20139;-77
2020/12/24 12:46:29;;;;;;;0.82;0.52;;;16.80;65.50;;;;;;5041293;28;20037;-77
2020/12/24 12:48:55;;;;;;;3.05;0.90;;;16.80;65.50;;;;;;5053873;28;20037;-77
2020/12/24 12:51:21;;;;;;;0.40;0.30;;;16.80;65.50;;;;;;5036170;28;20033;-77
2020/12/24 12:54:00;;;;;;;0.57;0.40;;;16.80;65.50;;;;;;5049522;28;20047;-77
2020/12/24 12:56:26;;;;;;;1.52;0.75;;;16.80;65.50;;;;;;5035831;28;20072;-77
2020/12/24 12:58:57;;;;;;;0.68;0.60;;;16.80;65.50;;;;;;5051186;28;20080;-78
2020/12/24 13:01:48;;;;;;;0.82;0.45;;;16.80;65.50;;;;;;5071247;28;20094;-77
2020/12/24 13:04:19;;;;;;;1.45;1.00;;;16.80;65.60;;;;;;5072520;28;20486;-78
2020/12/24 13:06:45;;;;;;;1.08;0.73;;;16.80;65.60;;;;;;5070160;28;20481;-77
2020/12/24 13:09:23;;;;;;;1.02;0.60;;;16.80;65.70;;;;;;5054098;28;20032;-77
2020/12/24 13:11:53;;;;;;;2.05;0.70;;;16.80;65.60;;;;;;5055051;28;20078;-77
2020/12/24 13:14:19;;;;;;;0.60;0.50;;;16.80;65.70;;;;;;5066368;28;20060;-77